createdAt,value
2023-04-23T00:00:13.732Z,8.51
2023-04-23T00:02:44.588Z,8.49
2023-04-23T00:05:16.632Z,8.46
2023-04-23T00:07:43.415Z,8.46
2023-04-23T00:10:10.669Z,8.46
2023-04-23T00:12:37.868Z,8.47
2023-04-23T00:15:06.887Z,8.45
2023-04-23T00:17:33.618Z,8.40
2023-04-23T00:20:00.246Z,8.38
2023-04-23T00:22:27.779Z,8.36
2023-04-23T00:24:54.449Z,8.36
2023-04-23T00:27:21.365Z,8.40
2023-04-23T00:29:48.035Z,8.38
2023-04-23T00:32:15.066Z,8.37
2023-04-23T00:34:42.046Z,8.34
2023-04-23T00:37:08.981Z,8.36
2023-04-23T00:39:37.606Z,8.32
2023-04-23T00:42:11.464Z,8.34
2023-04-23T00:44:39.124Z,8.34
2023-04-23T00:47:07.192Z,8.30
2023-04-23T00:49:36.300Z,8.28
2023-04-23T00:52:04.349Z,8.28
2023-04-23T00:54:31.174Z,8.27
2023-04-23T00:56:58.557Z,8.25
2023-04-23T00:59:29.263Z,8.28
2023-04-23T01:01:56.787Z,8.24
2023-04-23T01:04:28.060Z,8.25
2023-04-23T01:06:55.843Z,8.24
2023-04-23T01:09:23.772Z,8.25
2023-04-23T01:11:51.585Z,8.24
2023-04-23T01:14:18.310Z,8.30
2023-04-23T01:16:45.635Z,8.27
2023-04-23T01:19:17.038Z,8.31
2023-04-23T01:21:44.020Z,8.28
2023-04-23T01:24:11.482Z,8.26
2023-04-23T01:26:39.641Z,8.29
2023-04-23T01:29:07.120Z,8.28
2023-04-23T01:31:34.606Z,8.30
2023-04-23T01:34:02.247Z,8.27
2023-04-23T01:36:30.271Z,8.27
2023-04-23T01:38:56.939Z,8.26
2023-04-23T01:41:23.880Z,8.29
2023-04-23T01:43:50.658Z,8.29
2023-04-23T01:46:17.587Z,8.32
2023-04-23T01:48:44.368Z,8.29
2023-04-23T01:51:11.107Z,8.31
2023-04-23T01:53:37.800Z,8.34
2023-04-23T01:56:07.546Z,8.35
2023-04-23T01:58:34.166Z,8.33
2023-04-23T02:01:00.947Z,8.31
2023-04-23T02:03:30.176Z,8.38
2023-04-23T02:05:58.471Z,8.39
2023-04-23T02:08:26.361Z,8.44
2023-04-23T02:10:53.058Z,8.42
2023-04-23T02:13:19.867Z,8.44
2023-04-23T02:15:46.628Z,8.46
2023-04-23T02:18:13.313Z,8.45
2023-04-23T02:20:41.354Z,8.46
2023-04-23T02:23:08.899Z,8.48
2023-04-23T02:25:38.709Z,8.53
2023-04-23T02:28:07.740Z,8.53
2023-04-23T02:30:36.798Z,8.54
2023-04-23T02:33:03.897Z,8.53
2023-04-23T02:35:31.598Z,8.53
2023-04-23T02:37:58.401Z,8.57
2023-04-23T02:40:25.173Z,8.58
2023-04-23T02:42:51.793Z,8.60
2023-04-23T02:45:18.427Z,8.57
2023-04-23T02:47:45.361Z,8.57
2023-04-23T02:50:12.188Z,8.58
2023-04-23T02:52:38.858Z,8.57
2023-04-23T02:55:07.202Z,8.59
2023-04-23T02:57:34.515Z,8.59
2023-04-23T03:00:01.242Z,8.57
2023-04-23T03:02:27.934Z,8.58
2023-04-23T03:04:55.363Z,8.58
2023-04-23T03:07:22.259Z,8.62
2023-04-23T03:09:48.917Z,8.59
2023-04-23T03:12:16.146Z,8.60
2023-04-23T03:14:42.985Z,8.59
2023-04-23T03:17:10.127Z,8.63
2023-04-23T03:19:36.970Z,8.62
2023-04-23T03:22:05.943Z,8.61
2023-04-23T03:24:36.196Z,8.62
2023-04-23T03:27:02.862Z,8.60
2023-04-23T03:29:29.582Z,8.62
2023-04-23T03:31:56.780Z,8.61
2023-04-23T03:34:23.496Z,8.57
2023-04-23T03:36:51.164Z,8.55
2023-04-23T03:39:19.094Z,8.55
2023-04-23T03:41:46.237Z,8.54
2023-04-23T03:44:12.825Z,8.57
2023-04-23T03:46:39.507Z,8.56
2023-04-23T03:49:06.352Z,8.53
2023-04-23T03:51:32.996Z,8.48
2023-04-23T03:53:59.655Z,8.49
2023-04-23T03:56:27.207Z,8.49
2023-04-23T03:58:54.036Z,8.49
2023-04-23T04:01:20.659Z,8.48
2023-04-23T04:03:47.458Z,8.46
2023-04-23T04:06:14.329Z,8.47
2023-04-23T04:08:41.061Z,8.42
2023-04-23T04:11:08.671Z,8.46
2023-04-23T04:13:35.350Z,8.43
2023-04-23T04:16:02.311Z,8.39
2023-04-23T04:18:28.979Z,8.38
2023-04-23T04:20:55.720Z,8.40
2023-04-23T04:23:22.471Z,8.39
2023-04-23T04:25:50.959Z,8.38
2023-04-23T04:28:17.713Z,8.38
2023-04-23T04:30:44.748Z,8.35
2023-04-23T04:33:11.481Z,8.33
2023-04-23T04:35:38.118Z,8.32
2023-04-23T04:38:04.790Z,8.30
2023-04-23T04:40:31.590Z,8.33
2023-04-23T04:43:00.177Z,8.32
2023-04-23T04:45:26.893Z,8.29
2023-04-23T04:47:53.750Z,8.33
2023-04-23T04:50:20.588Z,8.29
2023-04-23T04:52:47.452Z,8.27
2023-04-23T04:55:14.179Z,8.29
2023-04-23T04:57:40.898Z,8.25
2023-04-23T05:00:20.043Z,8.30
2023-04-23T05:02:47.915Z,8.29
2023-04-23T05:05:15.200Z,8.27
2023-04-23T05:07:42.088Z,8.29
2023-04-23T05:10:09.269Z,8.32
2023-04-23T05:12:37.239Z,8.33
2023-04-23T05:15:04.676Z,8.36
2023-04-23T05:17:31.458Z,8.39
2023-04-23T05:19:58.225Z,8.38
2023-04-23T05:22:25.130Z,8.39
2023-04-23T05:24:51.814Z,8.39
2023-04-23T05:27:18.851Z,8.42
2023-04-23T05:29:45.544Z,8.43
2023-04-23T05:32:15.766Z,8.43
2023-04-23T05:34:42.853Z,8.51
2023-04-23T05:37:09.736Z,8.55
2023-04-23T05:39:36.372Z,8.53
2023-04-23T05:42:03.134Z,8.59
2023-04-23T05:44:30.054Z,8.60
2023-04-23T05:46:56.885Z,8.65
2023-04-23T05:49:23.701Z,8.68
2023-04-23T05:51:51.911Z,8.73
2023-04-23T05:54:19.222Z,8.76
2023-04-23T05:56:48.781Z,8.82
2023-04-23T05:59:15.459Z,8.88
2023-04-23T06:01:42.362Z,8.89
2023-04-23T06:04:09.596Z,8.98
2023-04-23T06:06:36.575Z,9.03
2023-04-23T06:09:04.650Z,9.08
2023-04-23T06:11:36.136Z,9.17
2023-04-23T06:14:03.906Z,9.26
2023-04-23T06:16:30.908Z,9.38
2023-04-23T06:18:57.812Z,9.50
2023-04-23T06:21:24.841Z,9.66
2023-04-23T06:23:51.628Z,9.86
2023-04-23T06:26:21.521Z,10.08
2023-04-23T06:28:48.239Z,10.40
2023-04-23T06:31:15.079Z,10.73
2023-04-23T06:33:41.922Z,10.99
2023-04-23T06:36:11.127Z,11.34
2023-04-23T06:38:38.472Z,11.73
2023-04-23T06:41:06.212Z,11.90
2023-04-23T06:43:32.984Z,12.17
2023-04-23T06:45:59.769Z,12.40
2023-04-23T06:48:26.596Z,12.76
2023-04-23T06:50:53.525Z,13.02
2023-04-23T06:53:20.116Z,13.21
2023-04-23T06:55:47.067Z,13.40
2023-04-23T06:58:14.843Z,13.67
2023-04-23T07:00:44.644Z,13.91
2023-04-23T07:03:11.838Z,14.07
2023-04-23T07:05:38.555Z,14.19
2023-04-23T07:08:05.589Z,14.39
2023-04-23T07:10:32.296Z,14.65
2023-04-23T07:12:58.872Z,14.87
2023-04-23T07:15:25.736Z,15.04
2023-04-23T07:17:52.341Z,15.22
2023-04-23T07:20:19.088Z,15.31
2023-04-23T07:22:47.138Z,15.50
2023-04-23T07:25:13.727Z,15.51
2023-04-23T07:27:40.522Z,15.73
2023-04-23T07:30:08.054Z,15.90
2023-04-23T07:32:35.220Z,16.09
2023-04-23T07:35:01.890Z,16.28
2023-04-23T07:37:28.690Z,16.46
2023-04-23T07:39:55.509Z,16.61
2023-04-23T07:42:22.150Z,16.73
2023-04-23T07:44:48.767Z,16.91
2023-04-23T07:47:15.787Z,17.07
2023-04-23T07:49:42.831Z,17.05
2023-04-23T07:52:09.938Z,17.23
2023-04-23T07:54:36.645Z,17.46
2023-04-23T07:57:03.308Z,17.46
2023-04-23T07:59:30.259Z,17.47
2023-04-23T08:01:56.774Z,17.67
2023-04-23T08:04:24.004Z,17.84
2023-04-23T08:06:51.051Z,17.81
2023-04-23T08:09:17.600Z,18.09
2023-04-23T08:11:44.421Z,18.28
2023-04-23T08:14:11.278Z,18.46
2023-04-23T08:16:39.075Z,18.62
2023-04-23T08:19:06.518Z,18.91
2023-04-23T08:21:33.662Z,19.03
2023-04-23T08:24:01.177Z,19.31
2023-04-23T08:26:27.838Z,19.43
2023-04-23T08:28:55.876Z,19.47
2023-04-23T08:31:26.825Z,19.67
2023-04-23T08:33:54.299Z,19.85
2023-04-23T08:36:21.050Z,20.01
2023-04-23T08:38:47.707Z,20.19
2023-04-23T08:41:17.365Z,20.27
2023-04-23T08:43:58.759Z,20.22
2023-04-23T08:46:31.096Z,20.44
2023-04-23T08:49:00.620Z,20.44
2023-04-23T08:51:30.636Z,20.74
2023-04-23T08:54:02.433Z,20.69
2023-04-23T08:56:30.432Z,20.82
2023-04-23T08:58:57.303Z,20.89
2023-04-23T09:01:24.203Z,20.92
2023-04-23T09:03:51.618Z,21.12
2023-04-23T09:06:19.910Z,21.28
2023-04-23T09:08:46.725Z,21.48
2023-04-23T09:11:14.528Z,21.24
2023-04-23T09:13:41.501Z,21.20
2023-04-23T09:16:10.359Z,21.09
2023-04-23T09:18:37.864Z,21.25
2023-04-23T09:21:05.005Z,21.12
2023-04-23T09:23:32.046Z,21.27
2023-04-23T09:25:58.709Z,21.41
2023-04-23T09:28:38.836Z,21.32
2023-04-23T09:31:08.826Z,21.42
2023-04-23T09:33:39.083Z,21.44
2023-04-23T09:36:15.903Z,21.44
2023-04-23T09:38:49.624Z,21.57
2023-04-23T09:41:27.407Z,21.64
2023-04-23T09:43:55.798Z,21.55
2023-04-23T09:46:42.562Z,21.53
2023-04-23T09:49:12.305Z,21.12
2023-04-23T09:51:47.860Z,21.02
2023-04-23T09:54:18.888Z,21.03
2023-04-23T09:56:51.034Z,21.29
2023-04-23T09:59:32.525Z,21.46
2023-04-23T10:02:07.840Z,21.65
2023-04-23T10:04:35.474Z,21.68
2023-04-23T10:07:18.031Z,21.62
2023-04-23T10:09:47.569Z,21.33
2023-04-23T10:14:46.448Z,21.66
2023-04-23T10:17:16.888Z,21.82
2023-04-23T10:19:45.011Z,21.94
2023-04-23T10:22:19.653Z,21.61
2023-04-23T10:24:53.193Z,21.69
2023-04-23T10:27:36.880Z,21.68
2023-04-23T10:30:14.564Z,21.70
2023-04-23T10:32:42.247Z,21.39
2023-04-23T10:35:10.065Z,21.47
2023-04-23T10:37:40.160Z,21.58
2023-04-23T10:40:14.307Z,21.53
2023-04-23T10:42:44.273Z,21.34
2023-04-23T10:45:23.054Z,20.91
2023-04-23T10:47:55.836Z,20.61
2023-04-23T10:50:30.739Z,20.57
2023-04-23T10:52:59.758Z,20.54
2023-04-23T10:55:28.866Z,20.47
2023-04-23T10:58:04.240Z,20.33
2023-04-23T11:00:46.789Z,20.21
2023-04-23T11:03:43.493Z,20.30
2023-04-23T11:06:15.752Z,20.37
2023-04-23T11:08:54.296Z,20.25
2023-04-23T11:11:40.233Z,20.22
2023-04-23T11:14:16.513Z,20.18
2023-04-23T11:16:43.161Z,20.22
2023-04-23T11:19:20.597Z,20.22
2023-04-23T11:22:00.782Z,20.10
2023-04-23T11:24:29.282Z,20.01
2023-04-23T11:26:56.555Z,20.01
2023-04-23T11:29:24.958Z,19.92
2023-04-23T11:32:02.239Z,19.68
2023-04-23T11:34:30.458Z,19.79
2023-04-23T11:36:59.481Z,19.60
2023-04-23T11:39:27.023Z,19.65
2023-04-23T11:41:54.794Z,19.62
2023-04-23T11:44:22.095Z,19.72
2023-04-23T11:46:50.161Z,19.71
2023-04-23T11:49:19.113Z,19.73
2023-04-23T11:51:46.809Z,19.71
2023-04-23T11:54:14.623Z,19.63
2023-04-23T11:56:41.979Z,19.66
2023-04-23T11:59:08.885Z,19.66
2023-04-23T12:01:43.949Z,19.63
2023-04-23T12:04:13.047Z,19.65
2023-04-23T12:06:42.840Z,19.56
2023-04-23T12:09:11.718Z,19.47
2023-04-23T12:11:39.360Z,19.39
2023-04-23T12:14:08.479Z,19.30
2023-04-23T12:16:44.287Z,19.11
2023-04-23T12:19:18.789Z,19.08
2023-04-23T12:21:56.609Z,19.10
2023-04-23T12:24:29.513Z,19.21
2023-04-23T12:27:00.463Z,19.25
2023-04-23T12:29:30.789Z,19.26
2023-04-23T12:31:59.610Z,19.24
2023-04-23T12:34:26.231Z,19.15
2023-04-23T12:36:55.734Z,19.26
2023-04-23T12:39:22.284Z,19.23
2023-04-23T12:41:53.880Z,19.22
2023-04-23T12:44:21.253Z,19.18
2023-04-23T12:46:59.422Z,19.14
2023-04-23T12:49:27.402Z,19.03
2023-04-23T12:51:57.401Z,19.09
2023-04-23T12:54:25.778Z,19.16
2023-04-23T12:56:52.928Z,19.19
2023-04-23T12:59:19.518Z,19.29
2023-04-23T13:01:46.099Z,19.27
2023-04-23T13:04:13.155Z,19.17
2023-04-23T13:06:40.441Z,19.11
2023-04-23T13:09:10.069Z,19.05
2023-04-23T13:11:40.780Z,19.00
2023-04-23T13:14:08.129Z,18.97
2023-04-23T13:16:34.972Z,18.93
2023-04-23T13:19:01.509Z,18.89
2023-04-23T13:21:28.048Z,18.93
2023-04-23T13:23:54.650Z,18.87
2023-04-23T13:26:21.482Z,18.83
2023-04-23T13:28:48.017Z,18.86
2023-04-23T13:31:14.703Z,18.89
2023-04-23T13:33:42.206Z,18.93
2023-04-23T13:36:09.532Z,18.88
2023-04-23T13:38:36.348Z,18.88
2023-04-23T13:41:02.999Z,18.86
2023-04-23T13:43:29.648Z,18.83
2023-04-23T13:45:56.234Z,18.84
2023-04-23T13:48:28.495Z,18.84
2023-04-23T13:50:55.776Z,18.80
2023-04-23T13:53:22.802Z,18.79
2023-04-23T13:55:49.806Z,18.80
2023-04-23T13:58:16.539Z,18.71
2023-04-23T14:00:43.808Z,18.71
2023-04-23T14:03:10.778Z,18.69
2023-04-23T14:05:38.319Z,18.67
2023-04-23T14:08:05.061Z,18.65
2023-04-23T14:10:33.232Z,18.58
2023-04-23T14:12:59.847Z,18.56
2023-04-23T14:15:26.545Z,18.58
2023-04-23T14:17:53.155Z,18.58
2023-04-23T14:20:20.724Z,18.56
2023-04-23T14:22:55.604Z,18.51
2023-04-23T14:25:34.423Z,18.47
2023-04-23T14:28:11.653Z,18.36
2023-04-23T14:30:40.833Z,18.31
2023-04-23T14:33:07.681Z,18.27
2023-04-23T14:35:43.093Z,18.24
2023-04-23T14:38:10.582Z,18.18
2023-04-23T14:40:37.226Z,18.17
2023-04-23T14:43:14.464Z,18.18
2023-04-23T14:45:41.866Z,18.14
2023-04-23T14:48:08.424Z,18.14
2023-04-23T14:50:38.388Z,18.12
2023-04-23T14:53:07.344Z,18.07
2023-04-23T14:55:34.391Z,17.99
2023-04-23T14:58:01.323Z,17.84
2023-04-23T15:00:28.654Z,17.54
2023-04-23T15:02:56.765Z,17.27
2023-04-23T15:05:23.831Z,17.09
2023-04-23T15:07:51.632Z,16.86
2023-04-23T15:10:18.955Z,16.46
2023-04-23T15:12:56.813Z,16.29
2023-04-23T15:15:43.824Z,16.04
2023-04-23T15:18:17.150Z,15.71
2023-04-23T15:20:44.444Z,15.52
2023-04-23T15:23:11.431Z,15.35
2023-04-23T15:25:39.425Z,15.21
2023-04-23T15:28:07.027Z,15.12
2023-04-23T15:30:43.578Z,14.88
2023-04-23T15:33:11.167Z,14.86
2023-04-23T15:35:42.642Z,14.78
2023-04-23T15:38:09.931Z,14.72
2023-04-23T15:40:42.084Z,14.64
2023-04-23T15:43:13.893Z,14.63
2023-04-23T15:45:40.821Z,14.59
2023-04-23T15:48:07.876Z,14.58
2023-04-23T15:50:35.448Z,14.58
2023-04-23T15:53:02.566Z,14.54
2023-04-23T15:55:29.612Z,14.52
2023-04-23T15:57:57.834Z,14.46
2023-04-23T16:00:24.591Z,14.43
2023-04-23T16:02:51.582Z,14.37
2023-04-23T16:05:19.013Z,14.36
2023-04-23T16:07:45.894Z,14.33
2023-04-23T16:10:12.621Z,14.33
2023-04-23T16:12:45.379Z,14.25
2023-04-23T16:15:13.017Z,14.20
2023-04-23T16:17:40.189Z,14.17
2023-04-23T16:20:10.849Z,14.09
2023-04-23T16:22:37.424Z,14.09
2023-04-23T16:25:04.894Z,14.08
2023-04-23T16:27:31.756Z,14.00
2023-04-23T16:29:58.568Z,13.94
2023-04-23T16:32:25.672Z,13.91
2023-04-23T16:34:52.483Z,13.89
2023-04-23T16:37:19.250Z,13.86
2023-04-23T16:39:45.978Z,13.89
2023-04-23T16:42:12.741Z,13.89
2023-04-23T16:44:43.033Z,13.85
2023-04-23T16:47:09.991Z,13.88
2023-04-23T16:49:39.628Z,13.92
2023-04-23T16:52:06.392Z,13.86
2023-04-23T16:54:34.203Z,13.91
2023-04-23T16:57:01.707Z,13.90
2023-04-23T16:59:28.795Z,13.84
2023-04-23T17:01:56.106Z,13.83
2023-04-23T17:04:23.110Z,13.84
2023-04-23T17:06:50.905Z,13.80
2023-04-23T17:09:18.432Z,13.74
2023-04-23T17:11:45.140Z,13.76
2023-04-23T17:14:12.984Z,13.82
2023-04-23T17:16:39.870Z,13.79
2023-04-23T17:19:06.571Z,13.79
2023-04-23T17:21:33.464Z,13.82
2023-04-23T17:24:00.189Z,13.80
2023-04-23T17:26:26.881Z,13.75
2023-04-23T17:28:53.506Z,13.73
2023-04-23T17:31:20.831Z,13.72
2023-04-23T17:33:49.451Z,13.71
2023-04-23T17:36:17.190Z,13.70
2023-04-23T17:38:43.786Z,13.72
2023-04-23T17:41:10.416Z,13.65
2023-04-23T17:43:37.110Z,13.65
2023-04-23T17:46:03.839Z,13.65
2023-04-23T17:48:30.618Z,13.63
2023-04-23T17:50:57.471Z,13.60
2023-04-23T17:53:24.148Z,13.58
2023-04-23T17:55:50.765Z,13.52
2023-04-23T17:58:19.222Z,13.48
2023-04-23T18:00:46.177Z,13.43
2023-04-23T18:03:16.603Z,13.41
2023-04-23T18:05:43.553Z,13.38
2023-04-23T18:08:10.332Z,13.36
2023-04-23T18:10:37.004Z,13.39
2023-04-23T18:13:05.258Z,13.31
2023-04-23T18:15:32.393Z,13.29
2023-04-23T18:17:59.731Z,13.27
2023-04-23T18:20:26.869Z,13.27
2023-04-23T18:22:54.398Z,13.21
2023-04-23T18:25:21.238Z,13.19
2023-04-23T18:27:48.680Z,13.15
2023-04-23T18:30:15.452Z,13.13
2023-04-23T18:32:47.879Z,13.10
2023-04-23T18:35:14.869Z,13.06
2023-04-23T18:37:41.458Z,13.06
2023-04-23T18:40:09.161Z,13.03
2023-04-23T18:42:35.897Z,13.04
2023-04-23T18:45:04.192Z,13.00
2023-04-23T18:47:36.769Z,13.02
2023-04-23T18:50:09.333Z,13.03
2023-04-23T18:52:36.292Z,13.01
2023-04-23T18:55:03.327Z,12.98
2023-04-23T18:57:29.924Z,12.98
2023-04-23T18:59:56.613Z,12.94
2023-04-23T19:02:35.339Z,12.96
2023-04-23T19:05:03.646Z,12.96
2023-04-23T19:07:30.302Z,12.93
2023-04-23T19:09:57.002Z,12.93
2023-04-23T19:12:23.620Z,12.90
2023-04-23T19:14:50.193Z,12.85
2023-04-23T19:17:18.781Z,12.86
2023-04-23T19:19:46.526Z,12.85
2023-04-23T19:22:13.171Z,12.81
2023-04-23T19:24:39.765Z,12.78
2023-04-23T19:27:07.317Z,12.75
2023-04-23T19:29:33.959Z,12.75
2023-04-23T19:32:00.825Z,12.74
2023-04-23T19:34:27.498Z,12.74
2023-04-23T19:36:54.080Z,12.71
2023-04-23T19:39:23.167Z,12.74
2023-04-23T19:41:49.769Z,12.68
2023-04-23T19:44:16.416Z,12.69
2023-04-23T19:46:43.161Z,12.67
2023-04-23T19:49:10.063Z,12.68
2023-04-23T19:51:38.193Z,12.65
2023-04-23T19:54:06.263Z,12.60
2023-04-23T19:56:32.926Z,12.58
2023-04-23T19:58:59.640Z,12.62
2023-04-23T20:01:28.397Z,12.60
2023-04-23T20:03:55.742Z,12.59
2023-04-23T20:06:22.458Z,12.59
2023-04-23T20:09:06.880Z,12.57
2023-04-23T20:11:35.899Z,12.56
2023-04-23T20:14:03.263Z,12.55
2023-04-23T20:16:30.930Z,12.57
2023-04-23T20:18:57.875Z,12.53
2023-04-23T20:21:25.178Z,12.51
2023-04-23T20:23:52.008Z,12.44
2023-04-23T20:26:20.000Z,12.44
2023-04-23T20:28:48.339Z,12.39
2023-04-23T20:31:15.630Z,12.35
2023-04-23T20:33:42.258Z,12.35
2023-04-23T20:36:10.763Z,12.35
2023-04-23T20:38:38.919Z,12.30
2023-04-23T20:41:06.140Z,12.29
2023-04-23T20:43:34.838Z,12.25
2023-04-23T20:46:02.116Z,12.24
2023-04-23T20:48:29.990Z,12.22
2023-04-23T20:50:58.091Z,12.18
2023-04-23T20:53:25.616Z,12.16
2023-04-23T20:55:52.375Z,12.14
2023-04-23T20:58:19.016Z,12.11
2023-04-23T21:00:45.907Z,12.07
2023-04-23T21:03:12.887Z,12.04
2023-04-23T21:05:44.171Z,11.97
2023-04-23T21:08:11.560Z,11.92
2023-04-23T21:10:38.972Z,11.89
2023-04-23T21:13:08.104Z,11.84
2023-04-23T21:15:35.637Z,11.78
2023-04-23T21:18:02.794Z,11.73
2023-04-23T21:20:29.573Z,11.62
2023-04-23T21:22:56.153Z,11.55
2023-04-23T21:25:22.831Z,11.48
2023-04-23T21:27:51.921Z,11.43
2023-04-23T21:30:46.723Z,11.37
2023-04-23T21:33:14.035Z,11.30
2023-04-23T21:35:40.942Z,11.25
2023-04-23T21:38:08.997Z,11.21
2023-04-23T21:40:37.601Z,11.18
2023-04-23T21:43:05.684Z,11.13
2023-04-23T21:45:33.727Z,11.11
2023-04-23T21:48:01.610Z,11.06
2023-04-23T21:50:30.804Z,11.04
2023-04-23T21:52:58.795Z,11.02
2023-04-23T21:55:27.264Z,11.01
2023-04-23T21:57:56.425Z,11.00
2023-04-23T22:00:25.668Z,11.02
2023-04-23T22:02:55.139Z,10.99
2023-04-23T22:05:23.531Z,10.98
2023-04-23T22:07:55.352Z,11.00
2023-04-23T22:10:22.826Z,11.02
2023-04-23T22:12:50.391Z,11.04
2023-04-23T22:15:18.792Z,11.03
2023-04-23T22:17:50.190Z,11.03
2023-04-23T22:20:19.170Z,11.01
2023-04-23T22:22:46.925Z,11.01
2023-04-23T22:25:13.988Z,11.05
2023-04-23T22:27:41.903Z,11.02
2023-04-23T22:30:10.979Z,11.05
2023-04-23T22:32:39.405Z,11.05
2023-04-23T22:35:07.932Z,11.06
2023-04-23T22:37:35.413Z,11.03
2023-04-23T22:40:04.152Z,11.04
2023-04-23T22:42:31.111Z,11.04
2023-04-23T22:44:57.960Z,11.04
2023-04-23T22:47:25.145Z,11.03
2023-04-23T22:49:51.835Z,11.05
2023-04-23T22:52:18.572Z,11.08
2023-04-23T22:54:45.502Z,11.09
2023-04-23T22:57:12.971Z,11.07
2023-04-23T22:59:40.353Z,11.05
2023-04-23T23:02:08.049Z,11.06
2023-04-23T23:04:37.876Z,11.06
2023-04-23T23:07:08.539Z,10.93
2023-04-23T23:09:35.235Z,10.87
2023-04-23T23:12:03.844Z,10.85
2023-04-23T23:14:33.215Z,10.79
2023-04-23T23:16:59.994Z,10.68
2023-04-23T23:19:27.802Z,10.59
2023-04-23T23:21:54.424Z,10.54
2023-04-23T23:24:22.481Z,10.48
2023-04-23T23:26:50.773Z,10.43
2023-04-23T23:29:17.432Z,10.44
2023-04-23T23:31:44.459Z,10.34
2023-04-23T23:34:12.045Z,10.32
2023-04-23T23:36:38.812Z,10.28
2023-04-23T23:39:06.890Z,10.24
2023-04-23T23:41:33.603Z,10.18
2023-04-23T23:44:00.598Z,10.18
2023-04-23T23:46:27.938Z,10.13
2023-04-23T23:48:54.996Z,10.13
2023-04-23T23:51:21.873Z,10.08
2023-04-23T23:53:48.908Z,10.06
2023-04-23T23:56:15.959Z,10.08
2023-04-23T23:58:42.584Z,10.06
